Bentonville, AR

11:03 PM CDT on July 02, 2015 (GMT -0500)
Bentonville (Denali Park) | | Change Station
CLOSE
Current Station
Personal Weather Station
Location: Bentonville, AR
Elevation: 1266 ft
Nearby Weather Stations

Elev 1266 ft 36.37 °N, 94.23 °W | Updated 21 seconds ago

Clear
Clear
70.0 °F
Feels Like 70.0 °F
N
0.0
Wind Variable Wind from SSW
Gusts 0.0 mph

Today
High -- | Low -- °F
--% Chance of Precip.
Yesterday
High -- | Low -- °F
Precip. -- in
6:03 AM 8:38 PM
Full, 99% visible
Pressure 29.95 in
Visibility 10.0 miles
Clouds Clear
Dew Point 67 °F
Humidity 91%
Rainfall 0.05 in
Snow Depth Not available.
UV 0 out of 12
Pollen 3.70 out of 12
Air Quality Not available.
Flu Activity Not available.
METAR KVBT 030355Z AUTO 23004KT 10SM CLR 21/18 A2995 RMK AO1

More Conditions Fewer Conditions

Pressure 29.95 in
Visibility 10.0 miles
Clouds Clear
Dew Point 67 °F
Humidity 91%
Rainfall 0.05 in
Snow Depth Not available.
UV 0 out of 12
Pollen 3.70 out of 12
Air Quality Not available.
Flu Activity Not available.
METAR KVBT 030355Z AUTO 23004KT 10SM CLR 21/18 A2995 RMK AO1

More Conditions Fewer Conditions

Nowcast | as of 10:54 PM CDT on July 2, 2015

At 10:50 PM...a west to east broken band of showers and scattered thunderstorms continued across mainly southeast Oklahoma and west central Arkansas. These showers and storms were generally along and south of Interstate 40...with some isolated showers to the north of the Interstate. Movement was to the southeast around 20 miles an hour. Through midnight...scattered showers and isolated thunderstorms will continue moving south of Interstate 40 into Pittsburg...Haskell...Latimer...and Le Flore counties in eastern Oklahoma and Sebastian and Franklin counties in west central Arkansas. An isolated shower will remain possible for locations north of Interstate 40. Rainfall amounts will range from a tenth of an inch to upwards of one-half inch in isolated thunderstorms.

×

10-Day Weather Forecast

×

Almanac

Astronomy

Jul. 02, 2015 Rise Set
Actual Time
Civil Twilight
Nautical Twilight
Astronomical Twilight
Moon
Length of Visible Light
Length of Day
Tomorrow will be .
, % of the Moon is Illuminated

Today's Extremes

State Highs State Lows

Community

WunderPhotos

Upload Photos

1,834,619 photos uploaded!

WunderBlogs® & News

Nearby

Air Quality

  Air Quality AQ Index Pollutant
Not available.

Snow Depth

Station Depth Elevation

Earthquake Activity

City Distance Mag. Time & Date
Minimum magnitude displayed is 2.5.

Coastal Water Temperatures

Place Temperature

Stations

Nearby Weather Stations

Station Location Temp. Windchill Dew Point Humidity Wind Precip. Elev Updated Type